Time;durP1;ratioP1;P1;durP2;ratioP2;P2;SDS_P1;SDS_P2;PMS_P1;PMS_P2;Temp;Humidity;BMP_temperature;BMP_pressure;BME280_temperature;BME280_humidity;BME280_pressure;Samples;Min_cycle;Max_cycle;Signal;HPM_P1;HPM_P2
2022/04/22 00:00:14;;;;;;;2.70;2.50;;;;;;;;;;625776;229;28129;-72
2022/04/22 00:02:42;;;;;;;2.50;2.30;;;;;;;;;;625343;229;27988;-71
2022/04/22 00:05:10;;;;;;;2.70;2.50;;;;;;;;;;623768;230;27531;-72
2022/04/22 00:07:38;;;;;;;4.27;2.77;;;;;;;;;;623383;229;27551;-73
2022/04/22 00:10:08;;;;;;;3.03;2.83;;;;;;;;;;622779;230;25429;-72
2022/04/22 00:12:34;;;;;;;2.50;2.30;;;;;;;;;;622736;229;27549;-74
2022/04/22 00:15:03;;;;;;;3.20;2.30;;;;;;;;;;624297;229;27522;-74
2022/04/22 00:17:30;;;;;;;2.13;1.90;;;;;;;;;;625249;229;27865;-74
2022/04/22 00:19:58;;;;;;;2.70;2.50;;;;;;;;;;623399;230;28093;-74
2022/04/22 00:22:26;;;;;;;2.70;2.50;;;;;;;;;;623391;230;27535;-75
2022/04/22 00:24:54;;;;;;;2.43;2.27;;;;;;;;;;623410;230;27581;-75
2022/04/22 00:27:22;;;;;;;2.70;2.50;;;;;;;;;;622898;229;27534;-72
2022/04/22 00:29:50;;;;;;;3.10;2.90;;;;;;;;;;625186;229;27982;-74
2022/04/22 00:32:18;;;;;;;2.37;2.20;;;;;;;;;;625558;229;27586;-74
2022/04/22 00:34:46;;;;;;;4.17;2.23;;;;;;;;;;625585;229;25518;-76
2022/04/22 00:37:14;;;;;;;2.23;2.03;;;;;;;;;;625497;229;27558;-75
2022/04/22 00:39:42;;;;;;;2.73;2.53;;;;;;;;;;623439;230;27534;-76
2022/04/22 00:42:11;;;;;;;3.40;2.13;;;;;;;;;;623901;228;27562;-76
2022/04/22 00:44:39;;;;;;;2.40;2.30;;;;;;;;;;624349;229;27578;-75
2022/04/22 00:47:07;;;;;;;2.03;1.83;;;;;;;;;;624120;229;28076;-75
2022/04/22 00:49:35;;;;;;;3.00;2.50;;;;;;;;;;624488;230;27535;-75
2022/04/22 00:52:03;;;;;;;2.33;2.13;;;;;;;;;;624113;230;27587;-75
2022/04/22 00:54:31;;;;;;;2.17;2.07;;;;;;;;;;624074;229;27600;-77
2022/04/22 00:56:59;;;;;;;2.67;2.47;;;;;;;;;;624247;229;28054;-77
2022/04/22 00:59:27;;;;;;;2.23;2.10;;;;;;;;;;623705;230;27578;-78
2022/04/22 01:01:55;;;;;;;2.50;2.20;;;;;;;;;;623177;230;25487;-78
2022/04/22 01:12:06;;;;;;;2.20;1.97;;;;;;;;;;625811;225;27636;-77
2022/04/22 01:14:33;;;;;;;2.03;1.90;;;;;;;;;;623316;229;25476;-77
2022/04/22 01:17:01;;;;;;;2.17;1.97;;;;;;;;;;623755;226;28043;-78
2022/04/22 01:19:29;;;;;;;2.50;2.30;;;;;;;;;;623568;230;27538;-78
2022/04/22 01:21:57;;;;;;;2.30;2.20;;;;;;;;;;623491;229;28057;-79
2022/04/22 01:24:26;;;;;;;2.23;2.13;;;;;;;;;;622840;230;27567;-77
2022/04/22 01:26:54;;;;;;;2.20;2.10;;;;;;;;;;623193;230;27605;-78
2022/04/22 01:29:22;;;;;;;2.30;2.10;;;;;;;;;;624698;229;27597;-78
2022/04/22 01:31:50;;;;;;;2.83;2.63;;;;;;;;;;625598;229;25472;-78
2022/04/22 01:34:18;;;;;;;2.53;2.33;;;;;;;;;;623763;229;27523;-79
2022/04/22 01:36:46;;;;;;;2.20;2.00;;;;;;;;;;623359;229;28046;-76
2022/04/22 01:39:14;;;;;;;2.07;1.97;;;;;;;;;;623312;229;27530;-78
2022/04/22 01:41:42;;;;;;;2.43;2.20;;;;;;;;;;623399;230;27582;-78
2022/04/22 01:44:10;;;;;;;2.03;1.93;;;;;;;;;;623406;230;27586;-79
2022/04/22 01:46:38;;;;;;;2.23;2.10;;;;;;;;;;623452;227;27546;-79
2022/04/22 01:49:06;;;;;;;2.10;2.00;;;;;;;;;;622742;230;28028;-79
2022/04/22 01:51:34;;;;;;;2.50;2.30;;;;;;;;;;622886;230;27546;-79
2022/04/22 01:54:02;;;;;;;2.00;1.90;;;;;;;;;;623561;228;27591;-80
2022/04/22 01:56:30;;;;;;;2.40;2.20;;;;;;;;;;626992;229;27996;-80
2022/04/22 01:58:58;;;;;;;2.50;2.30;;;;;;;;;;624735;229;27518;-79
2022/04/22 02:01:26;;;;;;;2.30;2.10;;;;;;;;;;623806;230;27548;-74
2022/04/22 02:03:54;;;;;;;2.23;2.13;;;;;;;;;;623559;230;27559;-74
2022/04/22 02:06:22;;;;;;;2.67;2.47;;;;;;;;;;623475;230;27535;-75
2022/04/22 02:08:50;;;;;;;2.60;2.00;;;;;;;;;;623421;230;27938;-77
2022/04/22 02:11:18;;;;;;;2.43;2.23;;;;;;;;;;624961;229;27564;-77
2022/04/22 02:13:46;;;;;;;2.20;2.07;;;;;;;;;;622822;229;27560;-79
2022/04/22 02:16:14;;;;;;;2.33;2.13;;;;;;;;;;622579;230;27566;-75
2022/04/22 02:18:43;;;;;;;2.03;1.93;;;;;;;;;;622925;229;27580;-78
2022/04/22 02:21:11;;;;;;;2.77;2.57;;;;;;;;;;623265;230;28080;-80
2022/04/22 02:23:40;;;;;;;2.50;2.30;;;;;;;;;;623264;230;27564;-78
2022/04/22 02:26:07;;;;;;;2.47;2.27;;;;;;;;;;623369;230;27599;-78
2022/04/22 02:28:35;;;;;;;2.40;2.20;;;;;;;;;;623586;229;28248;-78
2022/04/22 02:31:06;;;;;;;2.80;2.40;;;;;;;;;;623003;230;25421;-77
2022/04/22 02:33:33;;;;;;;2.37;2.27;;;;;;;;;;623145;229;27578;-78
2022/04/22 02:36:01;;;;;;;2.13;2.03;;;;;;;;;;623484;230;27538;-79
2022/04/22 02:38:29;;;;;;;2.00;1.90;;;;;;;;;;623503;230;27518;-78
2022/04/22 02:46:05;;;;;;;3.87;2.33;;;;;;;;;;623654;229;27575;-80
2022/04/22 02:48:33;;;;;;;2.53;2.33;;;;;;;;;;623176;230;27595;-80
2022/04/22 02:51:01;;;;;;;2.40;2.20;;;;;;;;;;623263;230;27528;-77
2022/04/22 02:53:29;;;;;;;2.70;2.50;;;;;;;;;;622777;230;28008;-77
2022/04/22 02:55:58;;;;;;;2.23;2.13;;;;;;;;;;622804;230;27533;-76
2022/04/22 02:58:25;;;;;;;2.43;2.33;;;;;;;;;;622924;230;27543;-81
2022/04/22 03:00:53;;;;;;;2.53;2.33;;;;;;;;;;622984;229;27532;-80
2022/04/22 03:03:22;;;;;;;2.07;1.97;;;;;;;;;;623025;230;27550;-80
2022/04/22 03:05:49;;;;;;;2.43;2.33;;;;;;;;;;623725;228;27582;-76
2022/04/22 03:08:17;;;;;;;2.10;2.00;;;;;;;;;;624361;229;27607;-78
2022/04/22 03:10:48;;;;;;;2.60;2.40;;;;;;;;;;624517;230;27523;-75
2022/04/22 03:13:13;;;;;;;2.50;2.30;;;;;;;;;;624231;229;27972;-78
2022/04/22 03:15:42;;;;;;;2.50;2.40;;;;;;;;;;623859;229;27572;-78
2022/04/22 03:18:10;;;;;;;2.63;2.43;;;;;;;;;;624428;229;25431;-77
2022/04/22 03:20:38;;;;;;;2.63;2.50;;;;;;;;;;626363;229;27590;-77
2022/04/22 03:23:06;;;;;;;2.40;2.30;;;;;;;;;;625634;229;27589;-77
2022/04/22 03:25:34;;;;;;;2.80;2.53;;;;;;;;;;623915;229;27568;-79
2022/04/22 03:28:02;;;;;;;2.40;2.20;;;;;;;;;;625530;229;27580;-80
2022/04/22 03:30:30;;;;;;;2.77;2.57;;;;;;;;;;623943;230;27533;-80
2022/04/22 03:32:58;;;;;;;2.90;2.70;;;;;;;;;;623803;229;27517;-79
2022/04/22 03:35:26;;;;;;;3.40;3.10;;;;;;;;;;623360;230;27607;-78
2022/04/22 03:37:54;;;;;;;2.67;2.47;;;;;;;;;;623376;229;27983;-74
2022/04/22 03:40:22;;;;;;;2.83;2.63;;;;;;;;;;623873;230;27546;-78
2022/04/22 03:42:52;;;;;;;2.47;2.27;;;;;;;;;;623553;230;27564;-78
2022/04/22 03:45:19;;;;;;;2.57;2.47;;;;;;;;;;623255;230;27574;-78
2022/04/22 03:47:46;;;;;;;2.73;2.53;;;;;;;;;;623092;229;27616;-75
2022/04/22 03:50:14;;;;;;;2.57;2.37;;;;;;;;;;623332;229;27555;-75
2022/04/22 03:52:42;;;;;;;3.17;2.97;;;;;;;;;;622779;230;27972;-76
2022/04/22 03:55:10;;;;;;;3.43;3.23;;;;;;;;;;622771;230;27536;-76
2022/04/22 04:00:12;;;;;;;2.30;2.20;;;;;;;;;;622791;230;27607;-76
2022/04/22 04:02:40;;;;;;;2.40;2.30;;;;;;;;;;622828;230;25462;-78
2022/04/22 04:05:08;;;;;;;2.83;2.63;;;;;;;;;;622861;230;27531;-78
2022/04/22 04:07:36;;;;;;;2.70;2.53;;;;;;;;;;623297;229;27579;-77
2022/04/22 04:17:46;;;;;;;3.20;3.00;;;;;;;;;;621709;229;27560;-75
2022/04/22 04:25:22;;;;;;;2.70;2.50;;;;;;;;;;626449;229;27633;-75
2022/04/22 04:27:50;;;;;;;2.67;2.47;;;;;;;;;;625900;229;27573;-75
2022/04/22 04:30:19;;;;;;;2.60;2.40;;;;;;;;;;626186;229;28027;-75
2022/04/22 04:32:46;;;;;;;2.80;2.60;;;;;;;;;;626066;229;27825;-75
2022/04/22 04:35:14;;;;;;;2.97;2.77;;;;;;;;;;626105;225;25481;-77
2022/04/22 04:37:42;;;;;;;2.67;2.47;;;;;;;;;;624931;229;27596;-76
2022/04/22 04:40:10;;;;;;;2.87;2.67;;;;;;;;;;623108;230;27597;-79
2022/04/22 04:42:38;;;;;;;3.13;2.90;;;;;;;;;;623140;230;27588;-78
2022/04/22 04:45:07;;;;;;;2.70;2.53;;;;;;;;;;623155;230;27630;-79
2022/04/22 04:47:38;;;;;;;2.27;2.10;;;;;;;;;;623360;230;27575;-79
2022/04/22 04:50:06;;;;;;;3.20;3.00;;;;;;;;;;623631;230;27595;-79
2022/04/22 04:52:36;;;;;;;2.77;2.57;;;;;;;;;;623565;229;27535;-73
2022/04/22 04:55:02;;;;;;;2.93;2.70;;;;;;;;;;623283;230;27591;-76
2022/04/22 04:57:31;;;;;;;2.57;2.37;;;;;;;;;;623347;230;27539;-76
2022/04/22 04:59:59;;;;;;;3.30;2.50;;;;;;;;;;625461;225;28036;-76
2022/04/22 05:02:27;;;;;;;2.83;2.70;;;;;;;;;;625474;229;27598;-75
2022/04/22 05:04:55;;;;;;;2.77;2.57;;;;;;;;;;623572;229;27535;-74
2022/04/22 05:07:23;;;;;;;3.00;2.80;;;;;;;;;;623346;226;27567;-75
2022/04/22 05:09:51;;;;;;;2.80;2.60;;;;;;;;;;623366;229;27523;-76
2022/04/22 05:12:19;;;;;;;3.07;2.87;;;;;;;;;;623362;226;27955;-75
2022/04/22 05:14:47;;;;;;;2.43;2.33;;;;;;;;;;623192;230;27596;-75
2022/04/22 05:17:15;;;;;;;2.83;2.63;;;;;;;;;;622703;230;27588;-76
2022/04/22 05:19:43;;;;;;;2.70;2.50;;;;;;;;;;622779;230;25417;-74
2022/04/22 05:22:11;;;;;;;2.67;2.57;;;;;;;;;;622877;230;27528;-78
2022/04/22 05:24:39;;;;;;;2.67;2.47;;;;;;;;;;623419;229;25819;-76
2022/04/22 05:27:07;;;;;;;2.93;2.83;;;;;;;;;;622952;230;27797;-77
2022/04/22 05:34:43;;;;;;;2.70;2.50;;;;;;;;;;626223;229;27593;-77
2022/04/22 05:37:11;;;;;;;2.60;2.40;;;;;;;;;;626578;229;27968;-77
2022/04/22 05:39:39;;;;;;;2.67;2.57;;;;;;;;;;623992;229;27531;-77
2022/04/22 05:42:07;;;;;;;2.50;2.40;;;;;;;;;;623517;230;27942;-77
2022/04/22 05:44:35;;;;;;;2.60;2.50;;;;;;;;;;621719;229;27528;-80
2022/04/22 05:47:03;;;;;;;2.50;2.40;;;;;;;;;;621661;230;25517;-81
2022/04/22 05:49:32;;;;;;;3.03;2.80;;;;;;;;;;623497;230;27609;-80
2022/04/22 05:51:59;;;;;;;2.90;2.70;;;;;;;;;;623491;230;28178;-79
2022/04/22 05:54:27;;;;;;;3.20;3.00;;;;;;;;;;624309;230;27592;-80
2022/04/22 05:56:55;;;;;;;2.63;2.50;;;;;;;;;;624544;229;27937;-80
2022/04/22 05:59:24;;;;;;;2.87;2.67;;;;;;;;;;624199;229;27542;-79
2022/04/22 06:01:51;;;;;;;3.77;2.97;;;;;;;;;;623981;230;27606;-78
2022/04/22 06:04:19;;;;;;;2.40;2.30;;;;;;;;;;623669;230;27960;-77
2022/04/22 06:06:47;;;;;;;2.63;2.47;;;;;;;;;;623434;230;27534;-79
2022/04/22 06:11:49;;;;;;;2.80;2.60;;;;;;;;;;623334;230;27552;-75
2022/04/22 06:14:17;;;;;;;2.90;2.70;;;;;;;;;;624438;229;27617;-77
2022/04/22 06:16:45;;;;;;;2.80;2.60;;;;;;;;;;622807;230;27537;-76
2022/04/22 06:19:13;;;;;;;2.63;2.50;;;;;;;;;;622846;230;27545;-73
2022/04/22 06:21:41;;;;;;;2.57;2.37;;;;;;;;;;622788;230;28003;-74
2022/04/22 06:24:10;;;;;;;2.60;2.43;;;;;;;;;;624532;229;27543;-76
2022/04/22 06:26:38;;;;;;;3.17;2.97;;;;;;;;;;624115;229;27571;-74
2022/04/22 06:29:05;;;;;;;2.87;2.67;;;;;;;;;;623045;230;25469;-75
2022/04/22 06:31:35;;;;;;;2.53;2.40;;;;;;;;;;622760;229;25453;-75
2022/04/22 06:34:02;;;;;;;2.77;2.57;;;;;;;;;;622733;230;25449;-77
2022/04/22 06:36:30;;;;;;;2.60;2.40;;;;;;;;;;622845;230;27588;-74
2022/04/22 06:38:58;;;;;;;2.83;2.63;;;;;;;;;;622802;230;27938;-76
2022/04/22 06:46:33;;;;;;;3.13;2.73;;;;;;;;;;623737;230;28252;-72
2022/04/22 06:49:02;;;;;;;3.03;2.83;;;;;;;;;;623927;229;27584;-77
2022/04/22 06:51:30;;;;;;;3.50;3.20;;;;;;;;;;623584;230;27535;-75
2022/04/22 06:53:58;;;;;;;2.63;2.53;;;;;;;;;;622064;230;27531;-75
2022/04/22 06:56:49;;;;;;;3.00;2.70;;;;;;;;;;622635;229;27581;-73
2022/04/22 06:59:24;;;;;;;4.00;3.50;;;;;;;;;;623382;230;27613;-77
2022/04/22 07:02:03;;;;;;;4.50;4.13;;;;;;;;;;623660;230;27632;-74
2022/04/22 09:50:57;;;;;;;5.93;3.60;;;20.10;53.90;;;;;;640798;216;38208;-73
2022/04/22 09:53:33;;;;;;;5.23;3.27;;;20.30;53.10;;;;;;622867;229;28006;-73
2022/04/22 09:55:56;;;;;;;5.67;4.00;;;20.30;52.40;;;;;;590956;230;71006;-73
2022/04/22 09:59:24;;;;;;;4.60;3.67;;;20.30;51.50;;;;;;647383;215;26474;-72
2022/04/22 10:15:05;;;;;;;4.57;3.40;;;23.70;50.80;;;;;;642607;221;27555;-65
2022/04/22 10:28:15;;;;;;;3.93;3.53;;;20.40;52.30;;;;;;625016;217;33718;-67
2022/04/22 10:35:07;;;;;;;3.60;3.30;;;;;;;;;;614787;222;80632;-71
2022/04/22 10:48:30;;;;;;;7.60;4.10;;;20.60;51.50;;;;;;637904;212;38773;-68
2022/04/22 10:55:39;;;;;;;4.47;3.70;;;20.70;51.40;;;;;;587624;234;110368;-66
2022/04/22 11:18:47;;;;;;;7.63;4.20;;;20.50;51.90;;;;;;652103;217;26521;-66
2022/04/22 11:29:50;;;;;;;5.00;3.83;;;20.50;52.00;;;;;;616958;225;153443;-68
2022/04/22 11:33:44;;;;;;;6.57;4.30;;;20.80;53.50;;;;;;628426;222;26526;-57
2022/04/22 11:46:53;;;;;;;5.23;4.07;;;20.50;52.00;;;;;;658675;217;26486;-59
2022/04/22 11:51:32;;;;;;;4.70;4.17;;;20.50;51.10;;;;;;604699;222;113939;-67
2022/04/22 12:29:33;;;;;;;4.43;3.90;;;;;;;;;;633171;221;35481;-69
2022/04/22 12:42:43;;;;;;;6.13;4.20;;;;;;;;;;657269;213;26466;-63
2022/04/22 12:55:58;;;;;;;4.97;3.90;;;;;;;;;;656947;217;27033;-62
2022/04/22 13:09:09;;;;;;;5.00;4.30;;;;;;;;;;645974;222;26489;-62
2022/04/22 13:22:17;;;;;;;4.50;4.03;;;;;;;;;;658714;213;26497;-63
2022/04/22 13:35:27;;;;;;;3.90;3.33;;;;;;;;;;647478;217;26489;-61
2022/04/22 14:01:54;;;;;;;4.60;3.83;;;;;;;;;;633261;226;26533;-62
2022/04/22 14:15:04;;;;;;;5.00;3.43;;;;;;;;;;649768;213;26494;-62
2022/04/22 14:28:13;;;;;;;3.50;3.30;;;;;;;;;;657190;217;26522;-62
2022/04/22 14:44:15;;;;;;;3.37;3.17;;;;;;;;;;639019;218;26516;-63
2022/04/22 14:57:26;;;;;;;3.47;3.13;;;;;;;;;;623958;226;27019;-66
2022/04/22 15:10:36;;;;;;;4.03;3.73;;;;;;;;;;658714;213;26498;-66
2022/04/22 15:26:36;;;;;;;3.50;3.30;;;;;;;;;;640601;222;26988;-65
2022/04/22 15:39:49;;;;;;;3.80;3.50;;;;;;;;;;646243;222;26466;-67
2022/04/22 15:52:58;;;;;;;3.47;3.20;;;;;;;;;;651942;217;26510;-68
2022/04/22 16:06:08;;;;;;;4.40;4.00;;;;;;;;;;658762;217;26486;-67
2022/04/22 16:19:18;;;;;;;5.53;2.73;;;;;;;;;;657966;217;26489;-68
2022/04/22 16:32:26;;;;;;;3.27;3.07;;;;;;;;;;644001;221;26510;-67
2022/04/22 16:45:36;;;;;;;8.13;3.23;;;;;;;;;;642745;222;26571;-64
2022/04/22 16:58:46;;;;;;;3.20;2.57;;;;;;;;;;642810;216;26687;-60
2022/04/22 17:11:55;;;;;;;3.17;2.97;;;;;;;;;;650738;213;26958;-59
2022/04/22 17:25:05;;;;;;;2.70;2.50;;;;;;;;;;649741;217;26972;-60
2022/04/22 17:38:15;;;;;;;3.33;2.57;;;;;;;;;;637568;222;26562;-64
2022/04/22 17:51:24;;;;;;;2.97;2.63;;;;;;;;;;658794;217;26953;-63
2022/04/22 18:04:34;;;;;;;8.07;4.50;;;;;;;;;;649733;217;26487;-65
2022/04/22 18:17:43;;;;;;;6.10;5.00;;;;;;;;;;641101;216;27070;-61
2022/04/22 18:30:54;;;;;;;5.10;4.37;;;;;;;;;;659002;217;26482;-60
2022/04/22 18:33:35;;;;;;;6.03;4.60;;;;;;;;;;634827;225;26522;-64
2022/04/22 18:46:42;;;;;;;5.37;4.83;;;;;;;;;;656198;217;26701;-61
2022/04/22 18:49:21;;;;;;;6.40;5.00;;;;;;;;;;640085;221;26497;-63
2022/04/22 19:02:30;;;;;;;8.33;4.90;;;;;;;;;;656380;217;26524;-61
2022/04/22 19:15:40;;;;;;;8.40;7.70;;;;;;;;;;659136;217;26760;-60
2022/04/22 19:28:50;;;;;;;6.77;6.10;;;;;;;;;;644383;217;26538;-59
2022/04/22 19:41:59;;;;;;;7.30;5.87;;;;;;;;;;659031;217;27064;-60
2022/04/22 19:55:09;;;;;;;5.67;5.17;;;;;;;;;;655535;213;26476;-62
2022/04/22 20:08:19;;;;;;;7.20;4.73;;;;;;;;;;639810;219;26523;-64
2022/04/22 20:10:59;;;;;;;6.20;5.63;;;;;;;;;;631369;222;24883;-64
2022/04/22 20:13:37;;;;;;;5.20;4.80;;;;;;;;;;634290;225;26586;-64
2022/04/22 20:16:18;;;;;;;6.20;5.60;;;;;;;;;;645886;222;26570;-65
2022/04/22 20:18:56;;;;;;;6.33;5.57;;;;;;;;;;622427;222;26575;-63
2022/04/22 20:21:35;;;;;;;7.80;5.60;;;;;;;;;;633745;226;26595;-65
2022/04/22 20:24:15;;;;;;;5.33;4.77;;;;;;;;;;640008;222;26492;-65
2022/04/22 20:26:54;;;;;;;6.60;4.90;;;;;;;;;;632414;226;26980;-65
2022/04/22 20:29:33;;;;;;;5.10;4.70;;;;;;;;;;635316;217;26562;-65
2022/04/22 20:42:44;;;;;;;6.33;5.10;;;;;;;;;;658391;217;26494;-66
2022/04/22 20:45:26;;;;;;;5.03;4.70;;;;;;;;;;630859;226;26535;-66
2022/04/22 20:58:35;;;;;;;5.00;4.60;;;;;;;;;;658472;212;26490;-61
2022/04/22 21:11:45;;;;;;;5.30;4.80;;;;;;;;;;646409;218;26517;-71
2022/04/22 21:24:56;;;;;;;5.03;4.63;;;;;;;;;;643446;221;24830;-75
2022/04/22 21:38:11;;;;;;;5.77;5.30;;;;;;;;;;641974;222;26539;-71
2022/04/22 21:40:50;;;;;;;5.73;5.23;;;;;;;;;;633470;226;26535;-71
2022/04/22 21:53:59;;;;;;;5.27;4.87;;;;;;;;;;654925;217;24857;-72
2022/04/22 22:07:11;;;;;;;4.80;4.40;;;;;;;;;;622208;226;27081;-70
2022/04/22 22:20:20;;;;;;;5.60;5.20;;;;;;;;;;611795;226;26593;-75
2022/04/22 22:22:59;;;;;;;4.80;4.50;;;;;;;;;;632331;225;26534;-73
2022/04/22 22:36:09;;;;;;;4.70;4.33;;;;;;;;;;654739;214;27561;-70
2022/04/22 22:49:19;;;;;;;5.37;4.97;;;;;;;;;;658988;213;26468;-74
2022/04/22 22:51:58;;;;;;;5.40;4.90;;;;;;;;;;633436;221;26502;-74
2022/04/22 22:54:38;;;;;;;5.07;4.57;;;;;;;;;;634636;225;26531;-74
2022/04/22 22:57:21;;;;;;;8.47;4.47;;;;;;;;;;648311;221;26978;-71
2022/04/22 23:10:31;;;;;;;5.27;4.73;;;;;;;;;;648444;221;24906;-72
2022/04/22 23:23:40;;;;;;;5.17;4.70;;;;;;;;;;646832;216;25130;-75
2022/04/22 23:26:20;;;;;;;5.07;4.57;;;;;;;;;;641785;218;26550;-74
2022/04/22 23:28:59;;;;;;;5.03;4.57;;;;;;;;;;622642;225;27090;-75
2022/04/22 23:52:39;;;;;;;4.63;3.93;;;;;;;;;;658970;217;26481;-75
